createdAt,value
2018-12-09T00:00:53.674Z,35.95
2018-12-09T00:03:23.035Z,35.15
2018-12-09T00:05:52.394Z,35.35
2018-12-09T00:08:21.757Z,35.38
2018-12-09T00:10:50.955Z,35.13
2018-12-09T00:13:20.452Z,35.62
2018-12-09T00:15:49.843Z,35.22
2018-12-09T00:18:19.237Z,36.00
2018-12-09T00:20:48.650Z,35.82
2018-12-09T00:23:17.976Z,35.96
2018-12-09T00:25:47.255Z,35.87
2018-12-09T00:28:16.524Z,35.67
2018-12-09T00:30:45.776Z,35.78
2018-12-09T00:33:15.192Z,35.58
2018-12-09T00:35:44.660Z,35.58
2018-12-09T00:38:14.025Z,35.35
2018-12-09T00:40:43.375Z,35.64
2018-12-09T00:43:12.785Z,35.64
2018-12-09T00:45:42.124Z,35.54
2018-12-09T00:48:11.395Z,35.54
2018-12-09T00:50:40.776Z,35.61
2018-12-09T00:53:10.183Z,35.69
2018-12-09T00:55:39.390Z,35.74
2018-12-09T00:58:08.797Z,35.62
2018-12-09T01:00:38.195Z,36.05
2018-12-09T01:03:07.521Z,35.25
2018-12-09T01:05:36.995Z,35.37
2018-12-09T01:08:06.105Z,35.17
2018-12-09T01:10:35.634Z,35.42
2018-12-09T01:13:05.014Z,35.38
2018-12-09T01:15:34.419Z,35.39
2018-12-09T01:18:03.708Z,35.59
2018-12-09T01:20:33.040Z,35.76
2018-12-09T01:23:02.408Z,35.67
2018-12-09T01:25:31.844Z,35.35
2018-12-09T01:28:01.222Z,35.75
2018-12-09T01:30:30.685Z,35.68
2018-12-09T01:32:59.959Z,35.41
2018-12-09T01:35:29.327Z,35.34
2018-12-09T01:37:58.638Z,35.02
2018-12-09T01:40:29.938Z,35.63
2018-12-09T01:42:59.279Z,35.21
2018-12-09T01:45:28.491Z,35.27
2018-12-09T01:47:57.807Z,35.51
2018-12-09T01:50:27.102Z,35.52
2018-12-09T01:54:03.812Z,35.54
2018-12-09T01:56:33.491Z,35.18
2018-12-09T01:59:02.782Z,35.33
2018-12-09T02:01:32.199Z,35.34
2018-12-09T02:04:01.592Z,34.92
2018-12-09T02:06:30.940Z,34.98
2018-12-09T02:09:00.399Z,35.37
2018-12-09T02:11:29.937Z,35.46
2018-12-09T02:13:59.214Z,35.56
2018-12-09T02:16:28.554Z,35.69
2018-12-09T02:19:09.479Z,35.20
2018-12-09T02:21:38.813Z,35.19
2018-12-09T02:24:08.177Z,35.45
2018-12-09T02:26:37.803Z,35.75
2018-12-09T02:29:07.305Z,35.11
2018-12-09T02:31:36.723Z,35.43
2018-12-09T02:34:06.223Z,35.20
2018-12-09T02:36:36.120Z,35.23
2018-12-09T02:39:06.070Z,35.62
2018-12-09T02:41:35.363Z,35.37
2018-12-09T02:44:04.742Z,35.17
2018-12-09T02:46:34.242Z,35.66
2018-12-09T02:49:03.753Z,35.42
2018-12-09T02:51:33.074Z,35.38
2018-12-09T02:54:02.463Z,34.75
2018-12-09T02:56:31.787Z,35.28
2018-12-09T02:59:01.369Z,35.38
2018-12-09T03:01:30.593Z,35.16
2018-12-09T03:03:59.981Z,34.93
2018-12-09T03:06:29.406Z,35.26
2018-12-09T03:08:58.728Z,35.37
2018-12-09T03:11:28.098Z,36.00
2018-12-09T03:13:57.395Z,35.54
2018-12-09T03:16:26.735Z,34.88
2018-12-09T03:18:56.824Z,34.91
2018-12-09T03:21:26.275Z,34.71
2018-12-09T03:23:55.508Z,34.60
2018-12-09T03:26:24.830Z,35.35
2018-12-09T03:28:54.127Z,35.45
2018-12-09T03:31:23.426Z,35.26
2018-12-09T03:33:52.912Z,35.07
2018-12-09T03:36:22.212Z,35.47
2018-12-09T03:38:51.615Z,35.44
2018-12-09T03:41:20.960Z,35.35
2018-12-09T03:43:50.346Z,35.38
2018-12-09T03:46:19.616Z,35.77
2018-12-09T03:48:48.951Z,35.22
2018-12-09T03:51:18.859Z,35.52
2018-12-09T03:53:48.287Z,35.75
2018-12-09T03:56:17.673Z,36.10
2018-12-09T03:58:46.964Z,35.10
2018-12-09T04:01:16.415Z,34.98
2018-12-09T04:03:45.692Z,34.73
2018-12-09T04:06:15.173Z,34.89
2018-12-09T04:08:44.571Z,35.44
2018-12-09T04:11:13.987Z,35.05
2018-12-09T04:13:43.471Z,35.44
2018-12-09T04:16:12.724Z,35.83
2018-12-09T04:18:41.986Z,35.33
2018-12-09T04:21:11.256Z,35.53
2018-12-09T04:23:40.403Z,35.76
2018-12-09T04:26:09.656Z,35.36
2018-12-09T04:28:39.099Z,34.73
2018-12-09T04:31:08.499Z,34.49
2018-12-09T04:33:37.916Z,34.57
2018-12-09T04:36:07.224Z,34.44
2018-12-09T04:38:36.463Z,34.79
2018-12-09T04:41:05.887Z,35.06
2018-12-09T04:43:35.204Z,35.03
2018-12-09T04:46:04.611Z,35.70
2018-12-09T04:48:34.028Z,34.73
2018-12-09T04:51:03.328Z,34.58
2018-12-09T04:53:32.619Z,34.93
2018-12-09T04:56:02.171Z,34.55
2018-12-09T04:58:31.522Z,34.75
2018-12-09T05:01:00.940Z,34.84
2018-12-09T05:03:30.116Z,35.29
2018-12-09T05:05:59.449Z,35.52
2018-12-09T05:08:29.240Z,35.28
2018-12-09T05:10:58.668Z,35.56
2018-12-09T05:13:28.047Z,34.65
2018-12-09T05:15:57.370Z,34.90
2018-12-09T05:18:26.560Z,34.95
2018-12-09T05:20:56.045Z,34.88
2018-12-09T05:23:25.459Z,34.61
2018-12-09T05:25:54.759Z,35.03
2018-12-09T05:28:24.170Z,35.22
2018-12-09T05:30:53.782Z,34.70
2018-12-09T05:33:23.263Z,35.02
2018-12-09T05:35:52.584Z,34.20
2018-12-09T05:38:21.979Z,34.85
2018-12-09T05:40:51.755Z,34.40
2018-12-09T05:43:21.307Z,34.46
2018-12-09T05:45:50.715Z,35.20
2018-12-09T05:48:20.059Z,34.73
2018-12-09T05:50:49.416Z,34.78
2018-12-09T05:53:19.015Z,35.56
2018-12-09T05:55:48.544Z,34.87
2018-12-09T05:58:17.850Z,35.58
2018-12-09T06:00:47.122Z,35.44
2018-12-09T06:03:16.439Z,34.95
2018-12-09T06:05:45.728Z,34.61
2018-12-09T06:08:15.272Z,34.90
2018-12-09T06:10:44.527Z,34.65
2018-12-09T06:13:14.063Z,34.15
2018-12-09T06:15:43.765Z,31.62
2018-12-09T06:18:13.035Z,32.17
2018-12-09T06:20:42.643Z,32.77
2018-12-09T06:23:12.169Z,32.30
2018-12-09T06:25:41.484Z,33.44
2018-12-09T06:28:10.902Z,33.45
2018-12-09T06:30:40.193Z,33.51
2018-12-09T06:33:09.515Z,34.37
2018-12-09T06:35:38.863Z,35.86
2018-12-09T06:38:08.243Z,34.53
2018-12-09T06:40:37.776Z,35.04
2018-12-09T06:43:07.086Z,34.63
2018-12-09T06:45:36.604Z,34.48
2018-12-09T06:48:05.905Z,35.00
2018-12-09T06:50:35.210Z,34.72
2018-12-09T06:53:04.434Z,34.67
2018-12-09T06:55:33.892Z,34.53
2018-12-09T06:58:03.248Z,34.64
2018-12-09T07:00:32.701Z,34.74
2018-12-09T07:03:02.150Z,34.31
2018-12-09T07:05:31.459Z,34.41
2018-12-09T07:08:00.852Z,34.85
2018-12-09T07:10:30.324Z,33.66
2018-12-09T07:12:59.801Z,33.08
2018-12-09T07:15:29.030Z,32.94
2018-12-09T07:17:58.346Z,32.14
2018-12-09T07:20:27.780Z,31.79
2018-12-09T07:22:57.031Z,31.79
2018-12-09T07:25:26.554Z,31.27
2018-12-09T07:27:55.984Z,31.66
2018-12-09T07:30:25.263Z,31.86
2018-12-09T07:32:54.476Z,31.72
2018-12-09T07:35:23.951Z,31.47
2018-12-09T07:37:53.367Z,32.14
2018-12-09T07:40:22.751Z,32.81
2018-12-09T07:42:52.136Z,33.17
2018-12-09T07:45:21.399Z,33.25
2018-12-09T07:47:50.921Z,33.73
2018-12-09T07:50:20.183Z,34.08
2018-12-09T07:52:49.524Z,34.96
2018-12-09T07:55:18.882Z,35.61
2018-12-09T07:57:48.390Z,35.74
2018-12-09T08:00:17.684Z,36.33
2018-12-09T08:02:47.104Z,36.25
2018-12-09T08:05:16.426Z,36.27
2018-12-09T08:07:45.926Z,36.45
2018-12-09T08:10:15.377Z,36.41
2018-12-09T08:12:44.704Z,36.64
2018-12-09T08:15:14.018Z,37.74
2018-12-09T08:17:43.321Z,37.34
2018-12-09T08:20:12.603Z,37.64
2018-12-09T08:22:42.133Z,37.93
2018-12-09T08:25:11.403Z,37.30
2018-12-09T08:27:40.712Z,37.83
2018-12-09T08:30:10.025Z,37.78
2018-12-09T08:32:39.315Z,37.63
2018-12-09T08:35:08.660Z,35.37
2018-12-09T08:37:37.959Z,36.32
2018-12-09T08:40:07.268Z,36.83
2018-12-09T08:42:36.412Z,37.03
2018-12-09T08:45:05.828Z,37.15
2018-12-09T08:47:35.236Z,36.53
2018-12-09T08:50:04.635Z,36.30
2018-12-09T08:52:33.937Z,36.55
2018-12-09T08:55:03.280Z,35.91
2018-12-09T08:57:32.552Z,33.36
2018-12-09T09:00:01.863Z,34.28
2018-12-09T09:02:32.767Z,32.57
2018-12-09T09:05:02.067Z,34.26
2018-12-09T09:07:31.479Z,34.68
2018-12-09T09:10:00.889Z,34.96
2018-12-09T09:12:30.402Z,34.52
2018-12-09T09:14:59.760Z,34.64
2018-12-09T09:17:29.032Z,34.49
2018-12-09T09:19:58.587Z,34.22
2018-12-09T09:22:28.257Z,33.95
2018-12-09T09:24:57.603Z,34.81
2018-12-09T09:27:27.059Z,34.38
2018-12-09T09:29:56.440Z,35.38
2018-12-09T09:32:25.730Z,34.58
2018-12-09T09:34:55.075Z,34.25
2018-12-09T09:37:24.232Z,34.06
2018-12-09T09:39:53.523Z,34.86
2018-12-09T09:42:22.845Z,35.13
2018-12-09T09:44:52.220Z,34.90
2018-12-09T09:47:21.643Z,35.00
2018-12-09T09:49:51.095Z,34.77
2018-12-09T09:52:20.346Z,34.82
2018-12-09T09:54:49.917Z,34.78
2018-12-09T09:57:19.085Z,33.86
2018-12-09T09:59:48.368Z,35.06
2018-12-09T10:02:17.732Z,34.98
2018-12-09T10:04:47.139Z,35.17
2018-12-09T10:07:16.480Z,35.35
2018-12-09T10:09:45.768Z,34.64
2018-12-09T10:12:17.028Z,34.16
2018-12-09T10:14:46.315Z,34.64
2018-12-09T10:17:15.676Z,34.74
2018-12-09T10:19:45.044Z,34.47
2018-12-09T10:22:14.414Z,34.70
2018-12-09T10:24:43.858Z,33.99
2018-12-09T10:27:13.232Z,34.52
2018-12-09T10:29:42.543Z,34.42
2018-12-09T10:32:11.862Z,34.17
2018-12-09T10:34:41.331Z,34.57
2018-12-09T10:37:10.741Z,34.32
2018-12-09T10:39:40.029Z,34.06
2018-12-09T10:42:09.434Z,34.82
2018-12-09T10:44:38.816Z,34.24
2018-12-09T10:47:08.037Z,34.42
2018-12-09T10:49:37.551Z,34.63
2018-12-09T10:52:06.951Z,34.67
2018-12-09T10:54:36.017Z,34.05
2018-12-09T10:57:05.421Z,34.52
2018-12-09T10:59:34.656Z,35.02
2018-12-09T11:02:08.833Z,35.02
2018-12-09T11:04:37.968Z,34.61
2018-12-09T11:07:07.275Z,33.96
2018-12-09T11:09:36.764Z,33.80
2018-12-09T11:12:06.256Z,33.67
2018-12-09T11:14:35.694Z,33.69
2018-12-09T11:17:05.152Z,33.60
2018-12-09T11:19:34.524Z,33.10
2018-12-09T11:22:03.762Z,33.60
2018-12-09T11:24:33.174Z,32.94
2018-12-09T11:27:02.473Z,33.70
2018-12-09T11:29:31.699Z,33.33
2018-12-09T11:32:01.199Z,33.15
2018-12-09T11:34:30.633Z,32.98
2018-12-09T11:37:00.006Z,33.32
2018-12-09T11:39:29.406Z,32.74
2018-12-09T11:41:58.723Z,33.56
2018-12-09T11:44:28.213Z,33.38
2018-12-09T11:46:57.644Z,33.11
2018-12-09T11:49:27.134Z,32.42
2018-12-09T11:51:56.439Z,32.13
2018-12-09T11:54:25.756Z,32.53
2018-12-09T11:56:55.219Z,33.16
2018-12-09T11:59:24.561Z,33.04
2018-12-09T12:01:54.027Z,33.07
2018-12-09T12:04:23.359Z,33.48
2018-12-09T12:06:52.587Z,33.37
2018-12-09T12:09:21.939Z,33.51
2018-12-09T12:11:51.399Z,33.20
2018-12-09T12:14:20.541Z,32.90
2018-12-09T12:16:49.763Z,33.30
2018-12-09T12:19:19.169Z,33.14
2018-12-09T12:21:48.471Z,32.82
2018-12-09T12:24:17.655Z,33.07
2018-12-09T12:26:46.972Z,33.33
2018-12-09T12:29:16.399Z,32.75
2018-12-09T12:31:45.844Z,33.30
2018-12-09T12:34:15.168Z,33.03
2018-12-09T12:36:44.666Z,33.62
2018-12-09T12:39:13.986Z,33.18
2018-12-09T12:41:43.307Z,33.52
2018-12-09T12:44:12.786Z,33.52
2018-12-09T12:46:42.192Z,33.12
2018-12-09T12:49:11.595Z,33.19
2018-12-09T12:51:40.880Z,33.18
2018-12-09T12:54:10.399Z,32.78
2018-12-09T12:56:39.892Z,33.12
2018-12-09T12:59:09.191Z,32.45
2018-12-09T13:01:38.521Z,32.01
2018-12-09T13:04:07.709Z,32.08
2018-12-09T13:06:37.112Z,31.48
2018-12-09T13:09:08.049Z,31.87
2018-12-09T13:11:37.471Z,32.55
2018-12-09T13:14:06.854Z,32.82
2018-12-09T13:16:36.159Z,33.11
2018-12-09T13:19:05.459Z,33.19
2018-12-09T13:21:34.796Z,33.37
2018-12-09T13:24:04.239Z,31.96
2018-12-09T13:26:33.446Z,31.59
2018-12-09T13:29:02.743Z,31.97
2018-12-09T13:31:32.147Z,32.57
2018-12-09T13:34:01.589Z,32.68
2018-12-09T13:36:30.973Z,31.90
2018-12-09T13:39:00.094Z,31.82
2018-12-09T13:41:29.595Z,32.19
2018-12-09T13:43:58.781Z,32.50
2018-12-09T13:46:28.172Z,32.25
2018-12-09T13:48:57.565Z,32.60
2018-12-09T13:51:27.003Z,32.32
2018-12-09T13:53:56.279Z,32.48
2018-12-09T13:56:25.696Z,32.84
2018-12-09T13:58:55.080Z,32.71
2018-12-09T14:01:24.376Z,32.69
2018-12-09T14:03:53.807Z,32.69
2018-12-09T14:06:23.652Z,33.23
2018-12-09T14:08:53.006Z,33.07
2018-12-09T14:11:22.460Z,32.75
2018-12-09T14:13:51.795Z,32.97
2018-12-09T14:16:21.223Z,33.15
2018-12-09T14:18:50.684Z,32.98
2018-12-09T14:21:19.939Z,33.41
2018-12-09T14:23:49.323Z,33.41
2018-12-09T14:26:18.741Z,33.22
2018-12-09T14:28:48.280Z,33.19
2018-12-09T14:31:17.656Z,33.79
2018-12-09T14:33:46.951Z,33.36
2018-12-09T14:36:16.176Z,33.47
2018-12-09T14:38:45.640Z,33.29
2018-12-09T14:41:15.044Z,33.50
2018-12-09T14:43:44.464Z,33.40
2018-12-09T14:46:13.854Z,33.05
2018-12-09T14:48:43.269Z,33.23
2018-12-09T14:51:12.746Z,33.73
2018-12-09T14:53:42.360Z,33.79
2018-12-09T14:56:11.805Z,34.35
2018-12-09T14:58:41.187Z,33.42
2018-12-09T15:01:10.616Z,33.98
2018-12-09T15:03:39.915Z,34.28
2018-12-09T15:06:09.379Z,33.94
2018-12-09T15:08:38.452Z,34.76
2018-12-09T15:11:08.421Z,34.41
2018-12-09T15:13:37.708Z,35.24
2018-12-09T15:16:07.218Z,35.16
2018-12-09T15:18:36.626Z,35.36
2018-12-09T15:21:05.797Z,36.28
2018-12-09T15:23:35.137Z,36.04
2018-12-09T15:26:04.550Z,36.25
2018-12-09T15:28:33.878Z,36.95
2018-12-09T15:31:03.153Z,34.54
2018-12-09T15:33:32.527Z,34.84
2018-12-09T15:36:01.507Z,39.03
2018-12-09T15:38:31.014Z,39.90
2018-12-09T15:41:00.210Z,40.29
2018-12-09T15:43:29.556Z,40.96
2018-12-09T15:45:58.941Z,38.45
2018-12-09T15:48:28.355Z,39.36
2018-12-09T15:50:57.928Z,40.63
2018-12-09T15:53:27.488Z,41.20
2018-12-09T15:55:56.793Z,41.19
2018-12-09T15:58:26.176Z,41.93
2018-12-09T16:00:55.684Z,42.45
2018-12-09T16:03:25.077Z,41.44
2018-12-09T16:05:54.568Z,41.82
2018-12-09T16:08:23.997Z,42.72
2018-12-09T16:10:53.385Z,41.12
2018-12-09T16:13:22.701Z,42.17
2018-12-09T16:15:51.993Z,42.91
2018-12-09T16:18:21.377Z,41.07
2018-12-09T16:20:50.626Z,40.15
2018-12-09T16:23:20.020Z,41.52
2018-12-09T16:25:49.179Z,41.87
2018-12-09T16:28:18.591Z,42.77
2018-12-09T16:30:48.046Z,43.08
2018-12-09T16:33:17.306Z,40.70
2018-12-09T16:35:47.538Z,40.48
2018-12-09T16:38:17.096Z,40.05
2018-12-09T16:40:46.491Z,40.33
2018-12-09T16:43:30.112Z,39.93
2018-12-09T16:45:59.479Z,42.51
2018-12-09T16:48:29.371Z,43.41
2018-12-09T16:50:58.610Z,41.29
2018-12-09T16:53:28.304Z,40.12
2018-12-09T16:55:57.744Z,42.68
2018-12-09T16:58:26.878Z,41.43
2018-12-09T17:00:56.191Z,40.19
2018-12-09T17:03:25.608Z,41.50
2018-12-09T17:05:54.977Z,41.04
2018-12-09T17:08:24.116Z,44.47
2018-12-09T17:10:53.436Z,46.04
2018-12-09T17:13:22.805Z,45.86
2018-12-09T17:15:52.301Z,46.09
2018-12-09T17:18:21.723Z,46.37
2018-12-09T17:20:51.238Z,45.33
2018-12-09T17:23:20.649Z,43.97
2018-12-09T17:25:49.959Z,47.30
2018-12-09T17:28:19.208Z,46.16
2018-12-09T17:30:48.445Z,42.41
2018-12-09T17:33:17.847Z,40.89
2018-12-09T17:35:47.237Z,40.83
2018-12-09T17:38:16.646Z,40.18
2018-12-09T17:40:46.200Z,44.31
2018-12-09T17:43:15.584Z,44.17
2018-12-09T17:45:44.958Z,44.31
2018-12-09T17:48:14.476Z,45.08
2018-12-09T17:50:43.884Z,45.08
2018-12-09T17:53:13.267Z,44.56
2018-12-09T17:55:42.579Z,43.83
2018-12-09T17:58:11.908Z,45.52
2018-12-09T18:00:41.159Z,45.80
2018-12-09T18:03:10.491Z,45.17
2018-12-09T18:05:39.860Z,45.35
2018-12-09T18:08:09.244Z,45.27
2018-12-09T18:10:38.888Z,44.93
2018-12-09T18:13:08.304Z,43.89
2018-12-09T18:15:37.694Z,46.55
2018-12-09T18:18:07.144Z,44.66
2018-12-09T18:20:36.561Z,45.93
2018-12-09T18:23:05.909Z,45.33
2018-12-09T18:25:35.426Z,44.95
2018-12-09T18:28:04.839Z,44.98
2018-12-09T18:30:34.125Z,44.56
2018-12-09T18:33:03.540Z,44.72
2018-12-09T18:35:32.956Z,43.99
2018-12-09T18:38:02.103Z,44.72
2018-12-09T18:40:31.401Z,44.83
2018-12-09T18:43:00.878Z,44.68
2018-12-09T18:45:30.363Z,44.70
2018-12-09T18:47:59.591Z,44.98
2018-12-09T18:50:28.970Z,44.78
2018-12-09T18:52:58.387Z,45.04
2018-12-09T18:55:27.823Z,45.24
2018-12-09T18:57:57.196Z,44.93
2018-12-09T19:00:26.612Z,45.27
2018-12-09T19:02:55.999Z,45.24
2018-12-09T19:05:25.335Z,45.13
2018-12-09T19:07:54.613Z,45.01
2018-12-09T19:10:23.923Z,45.40
2018-12-09T19:12:53.452Z,45.26
2018-12-09T19:15:22.829Z,44.42
2018-12-09T19:17:52.228Z,44.42
2018-12-09T19:20:21.658Z,43.97
2018-12-09T19:22:50.935Z,43.74
2018-12-09T19:25:20.225Z,42.91
2018-12-09T19:27:49.453Z,42.88
2018-12-09T19:30:19.784Z,42.41
2018-12-09T19:32:49.163Z,42.54
2018-12-09T19:35:18.552Z,41.90
2018-12-09T19:37:47.756Z,42.05
2018-12-09T19:40:17.054Z,41.61
2018-12-09T19:42:46.369Z,41.83
2018-12-09T19:45:15.746Z,42.17
2018-12-09T19:47:45.192Z,42.10
2018-12-09T19:50:14.603Z,41.98
2018-12-09T19:52:44.122Z,41.71
2018-12-09T19:55:13.376Z,41.71
2018-12-09T19:57:42.760Z,41.86
2018-12-09T20:00:12.191Z,41.79
2018-12-09T20:02:41.643Z,40.97
2018-12-09T20:05:11.121Z,40.32
2018-12-09T20:07:40.608Z,40.52
2018-12-09T20:10:10.374Z,40.21
2018-12-09T20:12:40.121Z,40.32
2018-12-09T20:15:09.689Z,40.38
2018-12-09T20:17:39.020Z,40.26
2018-12-09T20:20:09.495Z,40.92
2018-12-09T20:22:38.892Z,40.59
2018-12-09T20:25:08.333Z,41.07
2018-12-09T20:27:38.418Z,40.07
2018-12-09T20:30:09.106Z,39.73
2018-12-09T20:32:38.682Z,39.99
2018-12-09T20:35:08.148Z,39.65
2018-12-09T20:37:37.590Z,40.15
2018-12-09T20:40:06.986Z,39.98
2018-12-09T20:42:36.316Z,39.61
2018-12-09T20:45:08.119Z,40.15
2018-12-09T20:47:37.811Z,39.96
2018-12-09T20:50:07.464Z,40.18
2018-12-09T20:52:36.877Z,39.70
2018-12-09T20:55:06.540Z,39.58
2018-12-09T20:57:35.926Z,39.31
2018-12-09T21:00:05.260Z,38.72
2018-12-09T21:02:34.568Z,38.75
2018-12-09T21:05:03.690Z,39.18
2018-12-09T21:07:33.750Z,39.17
2018-12-09T21:10:03.087Z,39.24
2018-12-09T21:12:32.592Z,39.51
2018-12-09T21:15:02.175Z,38.80
2018-12-09T21:17:31.609Z,38.86
2018-12-09T21:20:00.815Z,38.87
2018-12-09T21:22:30.183Z,38.10
2018-12-09T21:24:59.737Z,38.06
2018-12-09T21:27:29.559Z,38.84
2018-12-09T21:29:58.953Z,38.78
2018-12-09T21:32:28.241Z,38.61
2018-12-09T21:34:57.697Z,39.38
2018-12-09T21:37:27.108Z,38.42
2018-12-09T21:39:56.425Z,38.72
2018-12-09T21:42:25.840Z,38.23
2018-12-09T21:44:55.144Z,38.59
2018-12-09T21:47:24.238Z,38.44
2018-12-09T21:49:53.595Z,38.05
2018-12-09T21:52:22.863Z,38.79
2018-12-09T21:54:52.037Z,39.37
2018-12-09T21:57:21.338Z,38.94
2018-12-09T21:59:50.761Z,38.44
2018-12-09T22:02:21.996Z,38.62
2018-12-09T22:04:51.291Z,38.43
2018-12-09T22:07:20.691Z,38.07
2018-12-09T22:09:50.100Z,38.19
2018-12-09T22:12:19.383Z,37.94
2018-12-09T22:14:48.880Z,38.35
2018-12-09T22:17:18.304Z,38.89
2018-12-09T22:19:47.636Z,38.96
2018-12-09T22:22:16.896Z,38.38
2018-12-09T22:24:46.317Z,38.51
2018-12-09T22:27:15.598Z,38.60
2018-12-09T22:29:44.907Z,38.31
2018-12-09T22:32:14.113Z,38.60
2018-12-09T22:34:43.612Z,37.96
2018-12-09T22:37:13.039Z,38.38
2018-12-09T22:39:42.455Z,38.31
2018-12-09T22:42:11.938Z,38.33
2018-12-09T22:44:41.391Z,38.60
2018-12-09T22:47:10.680Z,38.31
2018-12-09T22:49:40.125Z,37.97
2018-12-09T22:52:09.565Z,37.94
2018-12-09T22:54:38.944Z,38.14
2018-12-09T22:57:08.235Z,37.98
2018-12-09T22:59:37.735Z,37.92
2018-12-09T23:02:12.176Z,37.81
2018-12-09T23:04:41.576Z,37.88
2018-12-09T23:07:15.791Z,38.58
2018-12-09T23:09:45.304Z,38.76
2018-12-09T23:12:14.599Z,38.89
2018-12-09T23:14:44.013Z,38.33
2018-12-09T23:17:13.391Z,38.25
2018-12-09T23:19:42.719Z,38.20
2018-12-09T23:22:12.197Z,38.35
2018-12-09T23:24:41.599Z,37.90
2018-12-09T23:27:10.900Z,37.72
2018-12-09T23:29:40.229Z,37.94
2018-12-09T23:32:09.661Z,37.96
2018-12-09T23:34:38.920Z,38.31
2018-12-09T23:37:08.411Z,37.79
2018-12-09T23:39:37.820Z,37.77
2018-12-09T23:42:07.168Z,37.55
2018-12-09T23:44:36.650Z,38.10
2018-12-09T23:47:06.040Z,37.87
2018-12-09T23:49:35.456Z,37.92
2018-12-09T23:52:04.744Z,38.14
2018-12-09T23:54:34.156Z,38.30
2018-12-09T23:57:03.661Z,38.25
2018-12-09T23:59:33.075Z,37.95
